createdAt,value
2019-04-04T00:00:35.865Z,101318.73
2019-04-04T00:03:05.807Z,101321.98
2019-04-04T00:05:35.683Z,101316.17
2019-04-04T00:08:05.399Z,101318.86
2019-04-04T00:10:35.282Z,101315.79
2019-04-04T00:13:05.125Z,101316.80
2019-04-04T00:15:34.968Z,101316.82
2019-04-04T00:18:04.790Z,101318.78
2019-04-04T00:20:34.622Z,101309.53
2019-04-04T00:23:05.012Z,101311.60
2019-04-04T00:25:35.794Z,101310.81
2019-04-04T00:28:05.556Z,101302.94
2019-04-04T00:30:35.284Z,101304.90
2019-04-04T00:33:05.220Z,101299.35
2019-04-04T00:35:34.952Z,101296.61
2019-04-04T00:38:06.670Z,101297.22
2019-04-04T00:40:36.252Z,101305.72
2019-04-04T00:43:06.087Z,101310.39
2019-04-04T00:45:35.916Z,101298.84
2019-04-04T00:48:05.747Z,101296.67
2019-04-04T00:50:36.818Z,101300.89
2019-04-04T00:53:07.147Z,101301.22
2019-04-04T00:55:37.190Z,101300.04
2019-04-04T00:58:06.915Z,101300.86
2019-04-04T01:00:36.743Z,101310.42
2019-04-04T01:03:06.472Z,101312.05
2019-04-04T01:05:36.310Z,101306.74
2019-04-04T01:08:07.021Z,101304.23
2019-04-04T01:10:37.170Z,101299.46
2019-04-04T01:13:07.033Z,101300.34
2019-04-04T01:15:36.764Z,101300.22
2019-04-04T01:18:06.821Z,101295.46
2019-04-04T01:20:36.840Z,101297.02
2019-04-04T01:23:06.563Z,101304.27
2019-04-04T01:25:36.296Z,101299.81
2019-04-04T01:28:08.247Z,101299.13
2019-04-04T01:30:38.623Z,101296.45
2019-04-04T01:33:08.351Z,101294.52
2019-04-04T01:35:38.046Z,101292.50
2019-04-04T01:38:09.141Z,101292.72
2019-04-04T01:40:38.881Z,101290.34
2019-04-04T01:43:09.361Z,101294.69
2019-04-04T01:45:39.654Z,101288.06
2019-04-04T01:48:10.522Z,101281.87
2019-04-04T01:50:40.350Z,101285.75
2019-04-04T01:53:10.188Z,101285.31
2019-04-04T01:55:39.910Z,101276.78
2019-04-04T01:58:09.979Z,101274.41
2019-04-04T02:00:40.499Z,101277.69
2019-04-04T02:03:10.130Z,101280.00
2019-04-04T02:05:39.755Z,101283.99
2019-04-04T02:08:09.482Z,101285.66
2019-04-04T02:10:39.186Z,101284.53
2019-04-04T02:13:09.883Z,101288.33
2019-04-04T02:15:40.200Z,101280.09
2019-04-04T02:18:09.838Z,101284.57
2019-04-04T02:20:39.567Z,101294.39
2019-04-04T02:23:09.186Z,101293.14
2019-04-04T02:25:38.811Z,101292.23
2019-04-04T02:28:08.859Z,101295.45
2019-04-04T02:30:39.264Z,101301.34
2019-04-04T02:33:08.908Z,101293.83
2019-04-04T02:35:42.766Z,101288.43
2019-04-04T02:38:10.031Z,101291.70
2019-04-04T02:40:41.989Z,101292.89
2019-04-04T02:43:11.020Z,101294.89
2019-04-04T02:45:40.653Z,101303.38
2019-04-04T02:48:10.382Z,101301.13
2019-04-04T02:50:40.112Z,101297.20
2019-04-04T02:53:09.833Z,101309.59
2019-04-04T02:55:39.579Z,101310.12
2019-04-04T02:58:13.774Z,101304.29
2019-04-04T03:00:40.660Z,101311.88
2019-04-04T03:03:10.391Z,101320.39
2019-04-04T03:05:40.222Z,101312.27
2019-04-04T03:08:09.852Z,101318.13
2019-04-04T03:10:39.574Z,101321.60
2019-04-04T03:13:09.109Z,101320.43
2019-04-04T03:15:41.377Z,101317.67
2019-04-04T03:18:10.319Z,101319.86
2019-04-04T03:20:40.047Z,101311.30
2019-04-04T03:23:09.611Z,101321.35
2019-04-04T03:25:39.412Z,101318.36
2019-04-04T03:28:09.032Z,101324.60
2019-04-04T03:30:38.655Z,101320.81
2019-04-04T03:33:08.269Z,101327.78
2019-04-04T03:35:37.901Z,101319.93
2019-04-04T03:38:07.755Z,101328.83
2019-04-04T03:40:37.589Z,101327.84
2019-04-04T03:43:07.292Z,101328.13
2019-04-04T03:45:36.935Z,101327.45
2019-04-04T03:48:06.860Z,101335.65
2019-04-04T03:50:36.490Z,101336.42
2019-04-04T03:53:06.129Z,101332.72
2019-04-04T03:55:35.744Z,101328.27
2019-04-04T03:58:05.470Z,101338.30
2019-04-04T04:00:39.219Z,101326.88
2019-04-04T04:03:06.360Z,101325.44
2019-04-04T04:05:38.936Z,101327.77
2019-04-04T04:08:07.465Z,101324.87
2019-04-04T04:10:38.732Z,101328.48
2019-04-04T04:13:08.866Z,101324.61
2019-04-04T04:15:38.812Z,101325.58
2019-04-04T04:18:08.524Z,101323.81
2019-04-04T04:20:38.157Z,101323.08
2019-04-04T04:23:07.891Z,101330.04
2019-04-04T04:25:37.511Z,101330.39
2019-04-04T04:28:07.242Z,101328.81
2019-04-04T04:30:40.429Z,101330.21
2019-04-04T04:33:08.680Z,101324.75
2019-04-04T04:35:42.141Z,101322.64
2019-04-04T04:38:09.954Z,101323.88
2019-04-04T04:40:39.680Z,101326.64
2019-04-04T04:43:09.255Z,101324.55
2019-04-04T04:45:38.833Z,101325.97
2019-04-04T04:48:08.540Z,101329.68
2019-04-04T04:50:40.356Z,101332.74
2019-04-04T04:53:09.757Z,101336.47
2019-04-04T04:55:39.402Z,101331.95
2019-04-04T04:58:10.264Z,101324.07
2019-04-04T05:00:40.355Z,101321.37
2019-04-04T05:03:10.008Z,101327.59
2019-04-04T05:05:39.736Z,101323.23
2019-04-04T05:08:10.127Z,101327.94
2019-04-04T05:10:40.432Z,101330.09
2019-04-04T05:13:10.062Z,101326.05
2019-04-04T05:15:39.886Z,101333.77
2019-04-04T05:18:11.877Z,101335.44
2019-04-04T05:20:41.286Z,101334.87
2019-04-04T05:23:11.343Z,101338.30
2019-04-04T05:25:52.083Z,101323.38
2019-04-04T05:28:12.736Z,101331.38
2019-04-04T05:30:42.485Z,101333.97
2019-04-04T05:33:12.288Z,101333.05
2019-04-04T05:35:42.125Z,101331.85
2019-04-04T05:38:12.464Z,101332.77
2019-04-04T05:40:42.518Z,101336.03
2019-04-04T05:43:14.875Z,101328.87
2019-04-04T05:45:45.334Z,101328.73
2019-04-04T05:48:15.173Z,101330.16
2019-04-04T05:50:44.812Z,101338.41
2019-04-04T05:53:14.462Z,101330.60
2019-04-04T05:55:44.150Z,101333.44
2019-04-04T05:58:13.786Z,101337.12
2019-04-04T06:00:45.057Z,101337.78
2019-04-04T06:03:15.153Z,101332.89
2019-04-04T06:05:45.428Z,101335.47
2019-04-04T06:08:15.093Z,101344.11
2019-04-04T06:10:44.783Z,101347.55
2019-04-04T06:13:14.439Z,101337.22
2019-04-04T06:15:44.143Z,101337.22
2019-04-04T06:18:13.766Z,101349.64
2019-04-04T06:20:43.274Z,101347.56
2019-04-04T06:23:13.019Z,101348.36
2019-04-04T06:25:43.058Z,101338.02
2019-04-04T06:28:12.790Z,101338.92
2019-04-04T06:30:43.657Z,101334.98
2019-04-04T06:33:14.599Z,101327.39
2019-04-04T06:35:47.063Z,101332.05
2019-04-04T06:38:15.797Z,101325.91
2019-04-04T06:40:45.528Z,101326.80
2019-04-04T06:43:15.064Z,101326.94
2019-04-04T06:45:46.563Z,101315.59
2019-04-04T06:48:16.053Z,101321.98
2019-04-04T06:50:45.759Z,101326.09
2019-04-04T06:53:15.562Z,101312.84
2019-04-04T06:55:45.299Z,101313.11
2019-04-04T06:58:17.139Z,101313.84
2019-04-04T07:00:49.903Z,101312.69
2019-04-04T07:03:18.528Z,101317.41
2019-04-04T07:05:48.357Z,101316.59
2019-04-04T07:08:17.987Z,101312.56
2019-04-04T07:10:57.322Z,101317.61
2019-04-04T07:13:22.259Z,101321.55
2019-04-04T07:16:05.377Z,101323.70
2019-04-04T07:18:22.731Z,101328.42
2019-04-04T07:20:52.458Z,101321.44
2019-04-04T07:23:23.214Z,101320.91
2019-04-04T07:25:53.551Z,101329.83
2019-04-04T07:28:22.705Z,101326.84
2019-04-04T07:30:54.604Z,101327.64
2019-04-04T07:33:23.780Z,101326.78
2019-04-04T07:35:53.299Z,101323.11
2019-04-04T07:38:23.144Z,101323.60
2019-04-04T07:40:52.977Z,101330.41
2019-04-04T07:43:22.586Z,101326.64
2019-04-04T07:45:55.183Z,101320.47
2019-04-04T07:48:23.895Z,101315.72
2019-04-04T07:50:53.731Z,101315.30
2019-04-04T07:53:23.330Z,101311.81
2019-04-04T07:55:53.194Z,101317.36
2019-04-04T07:58:22.818Z,101317.23
2019-04-04T08:00:52.547Z,101308.61
2019-04-04T08:03:22.283Z,101311.03
2019-04-04T08:05:52.175Z,101308.70
2019-04-04T08:08:22.042Z,101300.31
2019-04-04T08:10:51.668Z,101307.30
2019-04-04T08:13:21.298Z,101301.44
2019-04-04T08:15:50.935Z,101296.51
2019-04-04T08:18:20.754Z,101286.50
2019-04-04T08:20:50.482Z,101294.84
2019-04-04T08:23:20.219Z,101294.08
2019-04-04T08:25:49.761Z,101290.08
2019-04-04T08:28:19.582Z,101288.69
2019-04-04T08:30:49.318Z,101289.39
2019-04-04T08:33:18.933Z,101285.98
2019-04-04T08:35:48.558Z,101280.82
2019-04-04T08:38:18.501Z,101276.05
2019-04-04T08:40:48.135Z,101271.35
2019-04-04T08:43:17.856Z,101277.20
2019-04-04T08:45:47.580Z,101279.62
2019-04-04T08:48:16.715Z,101273.55
2019-04-04T08:50:46.330Z,101269.98
2019-04-04T08:53:15.371Z,101275.10
2019-04-04T08:55:44.907Z,101262.56
2019-04-04T08:58:14.511Z,101268.88
2019-04-04T09:00:43.539Z,101265.60
2019-04-04T09:03:13.135Z,101263.66
2019-04-04T09:05:42.744Z,101265.21
2019-04-04T09:08:11.810Z,101265.21
2019-04-04T09:10:41.310Z,101270.10
2019-04-04T09:13:11.142Z,101267.25
2019-04-04T09:15:40.985Z,101273.30
2019-04-04T09:18:10.568Z,101277.81
2019-04-04T09:20:40.229Z,101278.98
2019-04-04T09:23:09.960Z,101262.56
2019-04-04T09:25:41.017Z,101250.34
2019-04-04T09:28:10.851Z,101255.09
2019-04-04T09:30:40.580Z,101263.52
2019-04-04T09:33:10.208Z,101264.55
2019-04-04T09:35:39.946Z,101266.18
2019-04-04T09:38:09.683Z,101264.91
2019-04-04T09:40:39.507Z,101257.05
2019-04-04T09:43:08.647Z,101245.15
2019-04-04T09:45:38.242Z,101258.93
2019-04-04T09:48:07.978Z,101260.79
2019-04-04T09:50:37.717Z,101252.77
2019-04-04T09:53:08.267Z,101250.65
2019-04-04T09:55:37.986Z,101247.16
2019-04-04T09:58:07.711Z,101250.73
2019-04-04T10:00:37.446Z,101249.12
2019-04-04T10:03:07.075Z,101234.05
2019-04-04T10:05:36.803Z,101243.33
2019-04-04T10:08:06.783Z,101231.87
2019-04-04T10:10:36.583Z,101247.81
2019-04-04T10:13:06.306Z,101232.98
2019-04-04T10:15:36.031Z,101227.47
2019-04-04T10:18:05.761Z,101219.53
2019-04-04T10:20:35.335Z,101220.70
2019-04-04T10:23:04.878Z,101215.20
2019-04-04T10:25:34.742Z,101215.19
2019-04-04T10:28:04.474Z,101222.52
2019-04-04T10:30:35.333Z,101213.88
2019-04-04T10:33:04.958Z,101209.91
2019-04-04T10:35:34.581Z,101212.81
2019-04-04T10:38:04.219Z,101205.47
2019-04-04T10:40:33.948Z,101208.23
2019-04-04T10:43:03.533Z,101206.19
2019-04-04T10:45:33.200Z,101198.89
2019-04-04T10:48:02.725Z,101206.36
2019-04-04T10:50:32.356Z,101205.77
2019-04-04T10:53:02.088Z,101184.94
2019-04-04T10:55:31.809Z,101183.62
2019-04-04T10:58:01.339Z,101186.37
2019-04-04T11:00:31.125Z,101172.94
2019-04-04T11:03:00.218Z,101174.28
2019-04-04T11:05:29.709Z,101171.02
2019-04-04T11:07:59.444Z,101170.98
2019-04-04T11:10:28.492Z,101159.42
2019-04-04T11:12:58.115Z,101152.65
2019-04-04T11:15:27.882Z,101153.48
2019-04-04T11:17:57.542Z,101154.04
2019-04-04T11:20:26.691Z,101150.73
2019-04-04T11:22:56.206Z,101147.47
2019-04-04T11:25:26.020Z,101144.53
2019-04-04T11:27:55.748Z,101139.42
2019-04-04T11:30:25.375Z,101131.75
2019-04-04T11:32:55.003Z,101135.59
2019-04-04T11:35:23.947Z,101124.63
2019-04-04T11:37:53.445Z,101128.39
2019-04-04T11:40:22.486Z,101115.02
2019-04-04T11:42:52.097Z,101110.06
2019-04-04T11:45:21.336Z,101120.97
2019-04-04T11:47:50.823Z,101114.87
2019-04-04T11:50:20.081Z,101110.94
2019-04-04T11:52:49.690Z,101117.29
2019-04-04T11:55:19.919Z,101109.92
2019-04-04T11:57:49.448Z,101112.78
2019-04-04T12:00:20.851Z,101099.86
2019-04-04T12:02:50.445Z,101104.69
2019-04-04T12:05:20.807Z,101106.56
2019-04-04T12:07:50.524Z,101105.91
2019-04-04T12:10:19.555Z,101098.59
2019-04-04T12:12:49.168Z,101106.67
2019-04-04T12:15:19.913Z,101117.82
2019-04-04T12:17:49.441Z,101103.59
2019-04-04T12:20:19.182Z,101092.83
2019-04-04T12:22:49.007Z,101095.02
2019-04-04T12:25:18.680Z,101098.38
2019-04-04T12:27:48.251Z,101097.58
2019-04-04T12:30:20.531Z,101088.81
2019-04-04T12:32:49.456Z,101091.25
2019-04-04T12:35:19.293Z,101093.80
2019-04-04T12:37:48.329Z,101086.95
2019-04-04T12:40:20.981Z,101086.83
2019-04-04T12:42:49.293Z,101081.45
2019-04-04T12:45:19.135Z,101082.27
2019-04-04T12:47:48.754Z,101070.09
2019-04-04T12:50:18.583Z,101075.47
2019-04-04T12:52:47.630Z,101073.15
2019-04-04T12:55:17.330Z,101065.62
2019-04-04T12:57:46.957Z,101070.84
2019-04-04T13:00:16.690Z,101065.43
2019-04-04T13:02:46.500Z,101064.51
2019-04-04T13:05:16.178Z,101069.27
2019-04-04T13:07:45.904Z,101061.88
2019-04-04T13:10:15.471Z,101069.37
2019-04-04T13:12:45.151Z,101061.77
2019-04-04T13:15:14.768Z,101062.46
2019-04-04T13:17:45.564Z,101056.34
2019-04-04T13:20:15.351Z,101065.41
2019-04-04T13:22:44.953Z,101058.45
2019-04-04T13:25:14.605Z,101060.30
2019-04-04T13:27:44.226Z,101049.26
2019-04-04T13:30:14.582Z,101057.52
2019-04-04T13:32:44.213Z,101066.19
2019-04-04T13:35:13.941Z,101082.45
2019-04-04T13:37:43.642Z,101078.07
2019-04-04T13:40:13.291Z,101064.40
2019-04-04T13:42:43.036Z,101064.81
2019-04-04T13:45:12.766Z,101059.63
2019-04-04T13:47:42.489Z,101060.72
2019-04-04T13:50:12.792Z,101058.61
2019-04-04T13:52:42.761Z,101074.05
2019-04-04T13:55:12.595Z,101056.39
2019-04-04T13:57:42.330Z,101060.02
2019-04-04T14:00:12.161Z,101052.03
2019-04-04T14:02:43.128Z,101054.59
2019-04-04T14:05:14.433Z,101059.23
2019-04-04T14:07:44.522Z,101061.78
2019-04-04T14:10:17.084Z,101053.45
2019-04-04T14:12:45.619Z,101054.76
2019-04-04T14:15:15.452Z,101062.71
2019-04-04T14:17:45.178Z,101059.17
2019-04-04T14:20:14.817Z,101060.59
2019-04-04T14:22:44.479Z,101067.97
2019-04-04T14:25:14.300Z,101081.00
2019-04-04T14:27:44.009Z,101071.33
2019-04-04T14:30:13.742Z,101074.23
2019-04-04T14:32:43.487Z,101069.62
2019-04-04T14:35:13.092Z,101078.73
2019-04-04T14:37:42.736Z,101078.66
2019-04-04T14:40:12.460Z,101079.20
2019-04-04T14:42:42.187Z,101083.76
2019-04-04T14:45:11.913Z,101078.14
2019-04-04T14:47:41.954Z,101073.40
2019-04-04T14:50:11.686Z,101071.88
2019-04-04T14:52:41.403Z,101076.30
2019-04-04T14:55:11.157Z,101069.22
2019-04-04T14:57:40.869Z,101069.98
2019-04-04T15:00:12.131Z,101074.77
2019-04-04T15:02:41.870Z,101058.02
2019-04-04T15:05:11.486Z,101072.08
2019-04-04T15:07:41.109Z,101077.11
2019-04-04T15:10:10.754Z,101074.33
2019-04-04T15:12:40.473Z,101072.91
2019-04-04T15:15:10.097Z,101069.62
2019-04-04T15:17:40.190Z,101069.62
2019-04-04T15:20:09.871Z,101078.95
2019-04-04T15:22:39.813Z,101076.58
2019-04-04T15:25:09.426Z,101081.23
2019-04-04T15:27:39.053Z,101080.16
2019-04-04T15:30:08.786Z,101086.98
2019-04-04T15:32:38.520Z,101084.86
2019-04-04T15:35:08.251Z,101091.31
2019-04-04T15:37:38.098Z,101086.02
2019-04-04T15:40:07.891Z,101080.33
2019-04-04T15:42:37.756Z,101080.33
2019-04-04T15:45:07.504Z,101093.77
2019-04-04T15:47:38.745Z,101091.28
2019-04-04T15:50:08.471Z,101091.14
2019-04-04T15:52:38.200Z,101088.56
2019-04-04T15:55:09.465Z,101091.02
2019-04-04T15:57:39.188Z,101089.73
2019-04-04T16:00:08.702Z,101096.45
2019-04-04T16:02:38.456Z,101101.48
2019-04-04T16:05:08.186Z,101096.83
2019-04-04T16:07:39.064Z,101092.05
2019-04-04T16:10:09.382Z,101096.85
2019-04-04T16:12:39.003Z,101106.05
2019-04-04T16:15:08.746Z,101105.44
2019-04-04T16:17:38.464Z,101105.00
2019-04-04T16:20:08.200Z,101107.17
2019-04-04T16:22:38.133Z,101103.95
2019-04-04T16:25:07.970Z,101110.68
2019-04-04T16:27:37.695Z,101112.89
2019-04-04T16:30:08.321Z,101104.30
2019-04-04T16:32:38.292Z,101115.88
2019-04-04T16:35:09.441Z,101112.11
2019-04-04T16:37:39.389Z,101113.42
2019-04-04T16:40:09.807Z,101118.84
2019-04-04T16:42:39.458Z,101117.16
2019-04-04T16:45:09.286Z,101112.69
2019-04-04T16:47:39.009Z,101121.27
2019-04-04T16:50:09.060Z,101122.97
2019-04-04T16:52:38.784Z,101128.23
2019-04-04T16:55:08.647Z,101137.69
2019-04-04T16:57:38.326Z,101135.36
2019-04-04T17:00:12.165Z,101143.31
2019-04-04T17:02:41.900Z,101141.68
2019-04-04T17:05:13.075Z,101149.50
2019-04-04T17:07:42.899Z,101149.67
2019-04-04T17:10:13.743Z,101146.47
2019-04-04T17:12:43.377Z,101151.00
2019-04-04T17:15:13.211Z,101156.72
2019-04-04T17:17:42.827Z,101155.47
2019-04-04T17:20:12.530Z,101160.43
2019-04-04T17:22:42.395Z,101161.45
2019-04-04T17:25:12.050Z,101164.56
2019-04-04T17:27:41.857Z,101165.17
2019-04-04T17:30:11.648Z,101171.23
2019-04-04T17:32:41.314Z,101167.43
2019-04-04T17:35:10.968Z,101167.35
2019-04-04T17:37:41.392Z,101170.32
2019-04-04T17:40:11.531Z,101172.71
2019-04-04T17:42:41.759Z,101176.97
2019-04-04T17:45:11.655Z,101172.41
2019-04-04T17:47:41.363Z,101171.42
2019-04-04T17:50:12.252Z,101172.08
2019-04-04T17:52:43.703Z,101167.24
2019-04-04T17:55:13.503Z,101170.73
2019-04-04T17:57:44.275Z,101172.63
2019-04-04T18:00:13.975Z,101169.41
2019-04-04T18:02:44.015Z,101168.34
2019-04-04T18:05:15.173Z,101169.57
2019-04-04T18:07:44.802Z,101172.32
2019-04-04T18:10:14.532Z,101167.03
2019-04-04T18:12:44.172Z,101165.20
2019-04-04T18:15:13.784Z,101154.64
2019-04-04T18:17:43.648Z,101159.00
2019-04-04T18:20:13.454Z,101168.51
2019-04-04T18:22:45.549Z,101160.47
2019-04-04T18:25:15.267Z,101167.20
2019-04-04T18:27:45.099Z,101166.84
2019-04-04T18:30:15.646Z,101168.19
2019-04-04T18:32:45.382Z,101176.75
2019-04-04T18:35:15.070Z,101170.26
2019-04-04T18:37:44.829Z,101175.73
2019-04-04T18:40:15.992Z,101175.75
2019-04-04T18:42:53.004Z,101181.44
2019-04-04T18:45:17.201Z,101186.88
2019-04-04T18:47:47.131Z,101199.14
2019-04-04T18:50:16.759Z,101192.24
2019-04-04T18:52:46.389Z,101187.53
2019-04-04T18:55:19.921Z,101189.51
2019-04-04T18:57:47.382Z,101192.58
2019-04-04T19:00:18.239Z,101185.47
2019-04-04T19:02:47.962Z,101193.85
2019-04-04T19:05:17.800Z,101187.01
2019-04-04T19:07:47.523Z,101189.58
2019-04-04T19:10:17.254Z,101198.00
2019-04-04T19:12:46.797Z,101192.64
2019-04-04T19:15:16.981Z,101202.70
2019-04-04T19:17:46.656Z,101200.02
2019-04-04T19:20:16.287Z,101194.31
2019-04-04T19:22:46.018Z,101194.95
2019-04-04T19:25:15.668Z,101191.96
2019-04-04T19:27:45.405Z,101196.31
2019-04-04T19:30:15.419Z,101198.98
2019-04-04T19:32:45.141Z,101196.64
2019-04-04T19:35:14.883Z,101200.00
2019-04-04T19:37:44.515Z,101202.05
2019-04-04T19:40:14.227Z,101197.98
2019-04-04T19:42:43.964Z,101203.71
2019-04-04T19:45:13.668Z,101204.04
2019-04-04T19:47:43.212Z,101203.36
2019-04-04T19:50:12.940Z,101206.73
2019-04-04T19:52:42.775Z,101204.72
2019-04-04T19:55:12.405Z,101202.36
2019-04-04T19:57:42.242Z,101206.72
2019-04-04T20:00:12.267Z,101206.70
2019-04-04T20:02:43.974Z,101214.33
2019-04-04T20:05:13.474Z,101228.30
2019-04-04T20:07:43.311Z,101232.95
2019-04-04T20:10:12.832Z,101240.91
2019-04-04T20:12:42.567Z,101238.52
2019-04-04T20:15:12.290Z,101235.69
2019-04-04T20:17:42.635Z,101239.87
2019-04-04T20:20:12.371Z,101233.28
2019-04-04T20:22:42.203Z,101234.92
2019-04-04T20:25:11.837Z,101234.25
2019-04-04T20:27:54.097Z,101232.77
2019-04-04T20:30:14.485Z,101235.50
2019-04-04T20:32:44.514Z,101233.44
2019-04-04T20:35:14.117Z,101233.44
2019-04-04T20:37:43.686Z,101242.88
2019-04-04T20:40:13.480Z,101234.82
2019-04-04T20:42:43.821Z,101238.23
2019-04-04T20:45:13.660Z,101236.72
2019-04-04T20:47:43.388Z,101232.95
2019-04-04T20:50:13.132Z,101238.39
2019-04-04T20:52:42.744Z,101242.73
2019-04-04T20:55:12.321Z,101243.02
2019-04-04T20:57:42.000Z,101247.55
2019-04-04T21:00:11.634Z,101249.18
2019-04-04T21:02:41.865Z,101244.43
2019-04-04T21:05:11.501Z,101243.80
2019-04-04T21:07:41.337Z,101246.77
2019-04-04T21:10:11.066Z,101247.63
2019-04-04T21:12:40.691Z,101250.52
2019-04-04T21:15:10.317Z,101240.73
2019-04-04T21:17:40.045Z,101247.55
2019-04-04T21:20:09.784Z,101248.16
2019-04-04T21:22:39.405Z,101252.96
2019-04-04T21:25:09.150Z,101249.83
2019-04-04T21:27:38.779Z,101252.30
2019-04-04T21:30:08.392Z,101253.91
2019-04-04T21:32:38.023Z,101257.70
2019-04-04T21:35:07.751Z,101261.72
2019-04-04T21:37:37.377Z,101257.48
2019-04-04T21:40:07.212Z,101256.34
2019-04-04T21:42:36.729Z,101261.05
2019-04-04T21:45:07.077Z,101253.61
2019-04-04T21:47:36.818Z,101249.91
2019-04-04T21:50:07.021Z,101247.81
2019-04-04T21:52:37.396Z,101253.67
2019-04-04T21:55:07.323Z,101252.89
2019-04-04T21:57:36.956Z,101253.72
2019-04-04T22:00:07.190Z,101247.44
2019-04-04T22:02:38.360Z,101247.13
2019-04-04T22:05:08.212Z,101251.01
2019-04-04T22:07:38.844Z,101251.45
2019-04-04T22:10:09.692Z,101246.89
2019-04-04T22:12:39.324Z,101248.91
2019-04-04T22:15:08.952Z,101243.53
2019-04-04T22:17:39.793Z,101248.88
2019-04-04T22:20:10.666Z,101248.05
2019-04-04T22:22:40.300Z,101236.44
2019-04-04T22:25:10.020Z,101242.98
2019-04-04T22:27:39.544Z,101249.42
2019-04-04T22:30:09.277Z,101248.78
2019-04-04T22:32:39.004Z,101241.88
2019-04-04T22:35:08.634Z,101243.49
2019-04-04T22:37:38.263Z,101243.73
2019-04-04T22:40:07.818Z,101242.73
2019-04-04T22:42:38.671Z,101245.59
2019-04-04T22:45:08.577Z,101246.44
2019-04-04T22:47:38.103Z,101240.09
2019-04-04T22:50:08.716Z,101240.98
2019-04-04T22:52:38.486Z,101237.77
2019-04-04T22:55:08.221Z,101240.27
2019-04-04T22:57:38.045Z,101247.94
2019-04-04T23:00:08.406Z,101250.36
2019-04-04T23:02:39.656Z,101248.00
2019-04-04T23:05:10.403Z,101242.83
2019-04-04T23:07:40.040Z,101255.19
2019-04-04T23:10:09.666Z,101250.63
2019-04-04T23:12:39.402Z,101257.56
2019-04-04T23:15:09.765Z,101250.28
2019-04-04T23:17:39.465Z,101254.42
2019-04-04T23:20:09.773Z,101254.33
2019-04-04T23:22:46.966Z,101257.23
2019-04-04T23:25:10.701Z,101255.81
2019-04-04T23:27:40.332Z,101258.22
2019-04-04T23:30:10.065Z,101263.41
2019-04-04T23:32:39.590Z,101265.45
2019-04-04T23:35:09.332Z,101266.56
2019-04-04T23:37:38.839Z,101262.48
2019-04-04T23:40:08.471Z,101258.64
2019-04-04T23:42:38.101Z,101270.57
2019-04-04T23:45:08.040Z,101261.88
2019-04-04T23:47:43.186Z,101262.09
2019-04-04T23:50:09.240Z,101262.23
2019-04-04T23:52:38.864Z,101262.48
2019-04-04T23:55:08.487Z,101266.84
2019-04-04T23:57:38.220Z,101260.11
